sensor_id;sensor_type;location;lat;lon;timestamp;pressure;altitude;pressure_sealevel;temperature
44429;BMP180;30134;47.866;-4.222;2023-02-04T00:01:55;103855.00;;;23.70
44429;BMP180;30134;47.866;-4.222;2023-02-04T00:04:21;103853.00;;;23.70
44429;BMP180;30134;47.866;-4.222;2023-02-04T00:06:47;103858.00;;;23.70
44429;BMP180;30134;47.866;-4.222;2023-02-04T00:09:13;103861.00;;;23.70
44429;BMP180;30134;47.866;-4.222;2023-02-04T00:11:41;103856.00;;;23.70
44429;BMP180;30134;47.866;-4.222;2023-02-04T00:14:07;103856.00;;;23.70
44429;BMP180;30134;47.866;-4.222;2023-02-04T00:16:33;103844.00;;;23.70
44429;BMP180;30134;47.866;-4.222;2023-02-04T00:18:59;103850.00;;;23.70
44429;BMP180;30134;47.866;-4.222;2023-02-04T00:21:25;103854.00;;;23.70
44429;BMP180;30134;47.866;-4.222;2023-02-04T00:23:51;103860.00;;;23.70
44429;BMP180;30134;47.866;-4.222;2023-02-04T00:26:17;103850.00;;;23.70
44429;BMP180;30134;47.866;-4.222;2023-02-04T00:28:42;103860.00;;;23.70
44429;BMP180;30134;47.866;-4.222;2023-02-04T00:31:08;103845.00;;;23.70
44429;BMP180;30134;47.866;-4.222;2023-02-04T00:33:34;103839.00;;;23.70
44429;BMP180;30134;47.866;-4.222;2023-02-04T00:36:00;103857.00;;;23.70
44429;BMP180;30134;47.866;-4.222;2023-02-04T00:38:26;103852.00;;;23.70
44429;BMP180;30134;47.866;-4.222;2023-02-04T00:40:52;103855.00;;;23.70
44429;BMP180;30134;47.866;-4.222;2023-02-04T00:43:18;103861.00;;;23.70
44429;BMP180;30134;47.866;-4.222;2023-02-04T00:45:44;103855.00;;;23.70
44429;BMP180;30134;47.866;-4.222;2023-02-04T00:48:10;103853.00;;;23.70
44429;BMP180;30134;47.866;-4.222;2023-02-04T00:50:35;103851.00;;;23.60
44429;BMP180;30134;47.866;-4.222;2023-02-04T00:53:07;103857.00;;;23.70
44429;BMP180;30134;47.866;-4.222;2023-02-04T00:55:34;103858.00;;;23.70
44429;BMP180;30134;47.866;-4.222;2023-02-04T00:57:59;103852.00;;;23.60
44429;BMP180;30134;47.866;-4.222;2023-02-04T01:00:25;103850.00;;;23.60
44429;BMP180;30134;47.866;-4.222;2023-02-04T01:02:51;103858.00;;;23.60
44429;BMP180;30134;47.866;-4.222;2023-02-04T01:05:17;103852.00;;;23.70
44429;BMP180;30134;47.866;-4.222;2023-02-04T01:07:43;103847.00;;;23.60
44429;BMP180;30134;47.866;-4.222;2023-02-04T01:10:09;103854.00;;;23.70
44429;BMP180;30134;47.866;-4.222;2023-02-04T01:12:38;103848.00;;;23.60
44429;BMP180;30134;47.866;-4.222;2023-02-04T01:15:04;103851.00;;;23.60
44429;BMP180;30134;47.866;-4.222;2023-02-04T01:17:31;103844.00;;;23.60
44429;BMP180;30134;47.866;-4.222;2023-02-04T01:19:57;103848.00;;;23.60
44429;BMP180;30134;47.866;-4.222;2023-02-04T01:22:23;103847.00;;;23.70
44429;BMP180;30134;47.866;-4.222;2023-02-04T01:24:50;103844.00;;;23.60
44429;BMP180;30134;47.866;-4.222;2023-02-04T01:27:15;103842.00;;;23.70
44429;BMP180;30134;47.866;-4.222;2023-02-04T01:29:41;103842.00;;;23.60
44429;BMP180;30134;47.866;-4.222;2023-02-04T01:32:07;103836.00;;;23.60
44429;BMP180;30134;47.866;-4.222;2023-02-04T01:34:33;103844.00;;;23.60
44429;BMP180;30134;47.866;-4.222;2023-02-04T01:36:59;103836.00;;;23.60
44429;BMP180;30134;47.866;-4.222;2023-02-04T01:39:25;103842.00;;;23.60
44429;BMP180;30134;47.866;-4.222;2023-02-04T01:41:55;103836.00;;;23.60
44429;BMP180;30134;47.866;-4.222;2023-02-04T01:44:22;103840.00;;;23.60
44429;BMP180;30134;47.866;-4.222;2023-02-04T01:46:48;103844.00;;;23.60
44429;BMP180;30134;47.866;-4.222;2023-02-04T01:49:14;103836.00;;;23.60
44429;BMP180;30134;47.866;-4.222;2023-02-04T01:51:40;103835.00;;;23.60
44429;BMP180;30134;47.866;-4.222;2023-02-04T01:54:09;103842.00;;;23.60
44429;BMP180;30134;47.866;-4.222;2023-02-04T01:56:36;103841.00;;;23.60
44429;BMP180;30134;47.866;-4.222;2023-02-04T01:59:12;103850.00;;;23.60
44429;BMP180;30134;47.866;-4.222;2023-02-04T02:01:39;103848.00;;;23.60
44429;BMP180;30134;47.866;-4.222;2023-02-04T02:04:12;103845.00;;;23.60
44429;BMP180;30134;47.866;-4.222;2023-02-04T02:06:41;103851.00;;;23.60
44429;BMP180;30134;47.866;-4.222;2023-02-04T02:09:08;103847.00;;;23.60
44429;BMP180;30134;47.866;-4.222;2023-02-04T02:11:34;103849.00;;;23.60
44429;BMP180;30134;47.866;-4.222;2023-02-04T02:14:00;103847.00;;;23.60
44429;BMP180;30134;47.866;-4.222;2023-02-04T02:16:26;103851.00;;;23.60
44429;BMP180;30134;47.866;-4.222;2023-02-04T02:18:52;103846.00;;;23.60
44429;BMP180;30134;47.866;-4.222;2023-02-04T02:21:56;103851.00;;;23.60
44429;BMP180;30134;47.866;-4.222;2023-02-04T02:24:29;103858.00;;;23.60
44429;BMP180;30134;47.866;-4.222;2023-02-04T02:26:57;103861.00;;;23.60
44429;BMP180;30134;47.866;-4.222;2023-02-04T02:29:23;103855.00;;;23.60
44429;BMP180;30134;47.866;-4.222;2023-02-04T02:31:49;103852.00;;;23.60
44429;BMP180;30134;47.866;-4.222;2023-02-04T02:34:15;103852.00;;;23.60
44429;BMP180;30134;47.866;-4.222;2023-02-04T02:36:41;103852.00;;;23.60
44429;BMP180;30134;47.866;-4.222;2023-02-04T02:39:07;103853.00;;;23.60
44429;BMP180;30134;47.866;-4.222;2023-02-04T02:41:33;103856.00;;;23.60
44429;BMP180;30134;47.866;-4.222;2023-02-04T02:44:00;103856.00;;;23.60
44429;BMP180;30134;47.866;-4.222;2023-02-04T02:46:29;103856.00;;;23.60
44429;BMP180;30134;47.866;-4.222;2023-02-04T02:48:56;103851.00;;;23.60
44429;BMP180;30134;47.866;-4.222;2023-02-04T02:51:21;103855.00;;;23.60
44429;BMP180;30134;47.866;-4.222;2023-02-04T02:53:48;103862.00;;;23.60
44429;BMP180;30134;47.866;-4.222;2023-02-04T02:56:14;103861.00;;;23.60
44429;BMP180;30134;47.866;-4.222;2023-02-04T02:58:40;103865.00;;;23.60
44429;BMP180;30134;47.866;-4.222;2023-02-04T03:01:07;103861.00;;;23.60
44429;BMP180;30134;47.866;-4.222;2023-02-04T03:03:45;103863.00;;;23.60
44429;BMP180;30134;47.866;-4.222;2023-02-04T03:06:21;103863.00;;;23.60
44429;BMP180;30134;47.866;-4.222;2023-02-04T03:08:49;103865.00;;;23.60
44429;BMP180;30134;47.866;-4.222;2023-02-04T03:11:16;103865.00;;;23.60
44429;BMP180;30134;47.866;-4.222;2023-02-04T03:13:42;103863.00;;;23.60
44429;BMP180;30134;47.866;-4.222;2023-02-04T03:16:08;103864.00;;;23.60
44429;BMP180;30134;47.866;-4.222;2023-02-04T03:18:34;103866.00;;;23.60
44429;BMP180;30134;47.866;-4.222;2023-02-04T03:21:00;103865.00;;;23.60
44429;BMP180;30134;47.866;-4.222;2023-02-04T03:23:27;103864.00;;;23.60
44429;BMP180;30134;47.866;-4.222;2023-02-04T03:25:53;103864.00;;;23.60
44429;BMP180;30134;47.866;-4.222;2023-02-04T03:28:19;103863.00;;;23.60
44429;BMP180;30134;47.866;-4.222;2023-02-04T03:30:45;103868.00;;;23.60
44429;BMP180;30134;47.866;-4.222;2023-02-04T03:33:18;103871.00;;;23.60
44429;BMP180;30134;47.866;-4.222;2023-02-04T03:35:43;103874.00;;;23.60
44429;BMP180;30134;47.866;-4.222;2023-02-04T03:38:09;103876.00;;;23.60
44429;BMP180;30134;47.866;-4.222;2023-02-04T03:40:35;103875.00;;;23.60
44429;BMP180;30134;47.866;-4.222;2023-02-04T03:43:01;103866.00;;;23.60
44429;BMP180;30134;47.866;-4.222;2023-02-04T03:45:26;103867.00;;;23.60
44429;BMP180;30134;47.866;-4.222;2023-02-04T03:47:52;103866.00;;;23.60
44429;BMP180;30134;47.866;-4.222;2023-02-04T03:50:18;103873.00;;;23.60
44429;BMP180;30134;47.866;-4.222;2023-02-04T03:52:44;103864.00;;;23.60
44429;BMP180;30134;47.866;-4.222;2023-02-04T03:55:10;103862.00;;;23.60
44429;BMP180;30134;47.866;-4.222;2023-02-04T03:57:36;103865.00;;;23.60
44429;BMP180;30134;47.866;-4.222;2023-02-04T04:00:02;103866.00;;;23.60
44429;BMP180;30134;47.866;-4.222;2023-02-04T04:02:31;103871.00;;;23.60
44429;BMP180;30134;47.866;-4.222;2023-02-04T04:04:59;103875.00;;;23.60
44429;BMP180;30134;47.866;-4.222;2023-02-04T04:07:25;103872.00;;;23.60
44429;BMP180;30134;47.866;-4.222;2023-02-04T04:09:51;103871.00;;;23.60
44429;BMP180;30134;47.866;-4.222;2023-02-04T04:12:17;103871.00;;;23.60
44429;BMP180;30134;47.866;-4.222;2023-02-04T04:14:43;103873.00;;;23.60
44429;BMP180;30134;47.866;-4.222;2023-02-04T04:17:09;103868.00;;;23.60
44429;BMP180;30134;47.866;-4.222;2023-02-04T04:19:35;103869.00;;;23.60
44429;BMP180;30134;47.866;-4.222;2023-02-04T04:22:00;103866.00;;;23.60
44429;BMP180;30134;47.866;-4.222;2023-02-04T04:24:26;103875.00;;;23.60
44429;BMP180;30134;47.866;-4.222;2023-02-04T04:26:52;103877.00;;;23.60
44429;BMP180;30134;47.866;-4.222;2023-02-04T04:29:18;103874.00;;;23.60
44429;BMP180;30134;47.866;-4.222;2023-02-04T04:31:44;103879.00;;;23.60
44429;BMP180;30134;47.866;-4.222;2023-02-04T04:34:10;103884.00;;;23.60
44429;BMP180;30134;47.866;-4.222;2023-02-04T04:36:36;103883.00;;;23.60
44429;BMP180;30134;47.866;-4.222;2023-02-04T04:39:02;103881.00;;;23.60
44429;BMP180;30134;47.866;-4.222;2023-02-04T04:41:28;103889.00;;;23.60
44429;BMP180;30134;47.866;-4.222;2023-02-04T04:43:54;103887.00;;;23.60
44429;BMP180;30134;47.866;-4.222;2023-02-04T04:46:19;103892.00;;;23.60
44429;BMP180;30134;47.866;-4.222;2023-02-04T04:48:45;103892.00;;;23.60
44429;BMP180;30134;47.866;-4.222;2023-02-04T04:51:11;103897.00;;;23.60
44429;BMP180;30134;47.866;-4.222;2023-02-04T04:53:37;103902.00;;;23.60
44429;BMP180;30134;47.866;-4.222;2023-02-04T04:56:03;103899.00;;;23.60
44429;BMP180;30134;47.866;-4.222;2023-02-04T04:58:29;103901.00;;;23.60
44429;BMP180;30134;47.866;-4.222;2023-02-04T05:00:54;103906.00;;;23.60
44429;BMP180;30134;47.866;-4.222;2023-02-04T05:03:20;103902.00;;;23.60
44429;BMP180;30134;47.866;-4.222;2023-02-04T05:05:46;103906.00;;;23.60
44429;BMP180;30134;47.866;-4.222;2023-02-04T05:08:15;103901.00;;;23.60
44429;BMP180;30134;47.866;-4.222;2023-02-04T05:10:45;103900.00;;;23.60
44429;BMP180;30134;47.866;-4.222;2023-02-04T05:13:11;103902.00;;;23.60
44429;BMP180;30134;47.866;-4.222;2023-02-04T05:15:37;103904.00;;;23.60
44429;BMP180;30134;47.866;-4.222;2023-02-04T05:18:03;103902.00;;;23.60
44429;BMP180;30134;47.866;-4.222;2023-02-04T05:20:30;103904.00;;;23.60
44429;BMP180;30134;47.866;-4.222;2023-02-04T05:22:56;103909.00;;;23.60
44429;BMP180;30134;47.866;-4.222;2023-02-04T05:25:26;103911.00;;;23.60
44429;BMP180;30134;47.866;-4.222;2023-02-04T05:27:52;103913.00;;;23.60
44429;BMP180;30134;47.866;-4.222;2023-02-04T05:30:18;103904.00;;;23.60
44429;BMP180;30134;47.866;-4.222;2023-02-04T05:32:44;103904.00;;;23.60
44429;BMP180;30134;47.866;-4.222;2023-02-04T05:35:10;103906.00;;;23.60
44429;BMP180;30134;47.866;-4.222;2023-02-04T05:37:36;103903.00;;;23.60
44429;BMP180;30134;47.866;-4.222;2023-02-04T05:40:02;103898.00;;;23.60
44429;BMP180;30134;47.866;-4.222;2023-02-04T05:42:28;103898.00;;;23.60
44429;BMP180;30134;47.866;-4.222;2023-02-04T05:44:54;103896.00;;;23.60
44429;BMP180;30134;47.866;-4.222;2023-02-04T05:47:20;103889.00;;;23.60
44429;BMP180;30134;47.866;-4.222;2023-02-04T05:49:45;103890.00;;;23.60
44429;BMP180;30134;47.866;-4.222;2023-02-04T05:52:11;103897.00;;;23.60
44429;BMP180;30134;47.866;-4.222;2023-02-04T05:54:37;103888.00;;;23.60
44429;BMP180;30134;47.866;-4.222;2023-02-04T05:57:03;103887.00;;;23.60
44429;BMP180;30134;47.866;-4.222;2023-02-04T05:59:29;103892.00;;;23.60
44429;BMP180;30134;47.866;-4.222;2023-02-04T06:01:55;103890.00;;;23.60
44429;BMP180;30134;47.866;-4.222;2023-02-04T06:04:21;103889.00;;;23.60
44429;BMP180;30134;47.866;-4.222;2023-02-04T06:06:47;103891.00;;;23.60
44429;BMP180;30134;47.866;-4.222;2023-02-04T06:09:13;103891.00;;;23.60
44429;BMP180;30134;47.866;-4.222;2023-02-04T06:11:39;103895.00;;;23.60
44429;BMP180;30134;47.866;-4.222;2023-02-04T06:14:04;103892.00;;;23.60
44429;BMP180;30134;47.866;-4.222;2023-02-04T06:16:30;103896.00;;;23.60
44429;BMP180;30134;47.866;-4.222;2023-02-04T06:18:56;103892.00;;;23.60
44429;BMP180;30134;47.866;-4.222;2023-02-04T06:21:22;103894.00;;;23.60
44429;BMP180;30134;47.866;-4.222;2023-02-04T06:23:48;103901.00;;;23.60
44429;BMP180;30134;47.866;-4.222;2023-02-04T06:26:14;103898.00;;;23.60
44429;BMP180;30134;47.866;-4.222;2023-02-04T06:28:40;103901.00;;;23.60
44429;BMP180;30134;47.866;-4.222;2023-02-04T06:31:05;103893.00;;;23.60
44429;BMP180;30134;47.866;-4.222;2023-02-04T06:33:34;103893.00;;;23.60
44429;BMP180;30134;47.866;-4.222;2023-02-04T06:36:02;103899.00;;;23.60
44429;BMP180;30134;47.866;-4.222;2023-02-04T06:38:28;103894.00;;;23.60
44429;BMP180;30134;47.866;-4.222;2023-02-04T06:40:53;103900.00;;;23.60
44429;BMP180;30134;47.866;-4.222;2023-02-04T06:43:20;103895.00;;;23.60
44429;BMP180;30134;47.866;-4.222;2023-02-04T06:45:46;103899.00;;;23.60
44429;BMP180;30134;47.866;-4.222;2023-02-04T06:48:12;103897.00;;;23.60
44429;BMP180;30134;47.866;-4.222;2023-02-04T06:50:38;103894.00;;;23.50
44429;BMP180;30134;47.866;-4.222;2023-02-04T06:53:03;103899.00;;;23.60
44429;BMP180;30134;47.866;-4.222;2023-02-04T06:55:29;103898.00;;;23.60
44429;BMP180;30134;47.866;-4.222;2023-02-04T06:57:55;103904.00;;;23.60
44429;BMP180;30134;47.866;-4.222;2023-02-04T07:00:21;103908.00;;;23.60
44429;BMP180;30134;47.866;-4.222;2023-02-04T07:02:50;103906.00;;;23.60
44429;BMP180;30134;47.866;-4.222;2023-02-04T07:05:16;103917.00;;;23.60
44429;BMP180;30134;47.866;-4.222;2023-02-04T07:07:41;103916.00;;;23.60
44429;BMP180;30134;47.866;-4.222;2023-02-04T07:10:08;103921.00;;;23.60
44429;BMP180;30134;47.866;-4.222;2023-02-04T07:12:34;103913.00;;;23.60
44429;BMP180;30134;47.866;-4.222;2023-02-04T07:15:00;103911.00;;;23.60
44429;BMP180;30134;47.866;-4.222;2023-02-04T07:17:26;103907.00;;;23.60
44429;BMP180;30134;47.866;-4.222;2023-02-04T07:19:52;103904.00;;;23.60
44429;BMP180;30134;47.866;-4.222;2023-02-04T07:22:17;103911.00;;;23.60
44429;BMP180;30134;47.866;-4.222;2023-02-04T07:24:43;103922.00;;;23.60
44429;BMP180;30134;47.866;-4.222;2023-02-04T07:27:09;103913.00;;;23.60
44429;BMP180;30134;47.866;-4.222;2023-02-04T07:29:35;103926.00;;;23.60
44429;BMP180;30134;47.866;-4.222;2023-02-04T07:32:01;103921.00;;;23.60
44429;BMP180;30134;47.866;-4.222;2023-02-04T07:34:27;103917.00;;;23.50
44429;BMP180;30134;47.866;-4.222;2023-02-04T07:36:52;103923.00;;;23.60
44429;BMP180;30134;47.866;-4.222;2023-02-04T07:39:18;103924.00;;;23.50
44429;BMP180;30134;47.866;-4.222;2023-02-04T07:41:44;103924.00;;;23.60
44429;BMP180;30134;47.866;-4.222;2023-02-04T07:44:10;103930.00;;;23.50
44429;BMP180;30134;47.866;-4.222;2023-02-04T07:46:36;103940.00;;;23.50
44429;BMP180;30134;47.866;-4.222;2023-02-04T07:49:02;103942.00;;;23.60
44429;BMP180;30134;47.866;-4.222;2023-02-04T07:51:28;103946.00;;;23.60
44429;BMP180;30134;47.866;-4.222;2023-02-04T07:53:55;103942.00;;;23.60
44429;BMP180;30134;47.866;-4.222;2023-02-04T07:56:21;103942.00;;;23.50
44429;BMP180;30134;47.866;-4.222;2023-02-04T07:58:47;103945.00;;;23.60
44429;BMP180;30134;47.866;-4.222;2023-02-04T08:01:13;103943.00;;;23.50
44429;BMP180;30134;47.866;-4.222;2023-02-04T08:03:39;103945.00;;;23.50
44429;BMP180;30134;47.866;-4.222;2023-02-04T08:06:07;103949.00;;;23.50
44429;BMP180;30134;47.866;-4.222;2023-02-04T08:08:33;103947.00;;;23.50
44429;BMP180;30134;47.866;-4.222;2023-02-04T08:11:01;103952.00;;;23.50
44429;BMP180;30134;47.866;-4.222;2023-02-04T08:13:27;103949.00;;;23.60
44429;BMP180;30134;47.866;-4.222;2023-02-04T08:15:53;103956.00;;;23.50
44429;BMP180;30134;47.866;-4.222;2023-02-04T08:18:19;103952.00;;;23.50
44429;BMP180;30134;47.866;-4.222;2023-02-04T08:20:45;103960.00;;;23.50
44429;BMP180;30134;47.866;-4.222;2023-02-04T08:23:18;103964.00;;;23.50
44429;BMP180;30134;47.866;-4.222;2023-02-04T08:25:44;103968.00;;;23.60
44429;BMP180;30134;47.866;-4.222;2023-02-04T08:28:10;103965.00;;;23.60
44429;BMP180;30134;47.866;-4.222;2023-02-04T08:30:36;103963.00;;;23.60
44429;BMP180;30134;47.866;-4.222;2023-02-04T08:33:02;103959.00;;;23.50
44429;BMP180;30134;47.866;-4.222;2023-02-04T08:35:28;103959.00;;;23.50
44429;BMP180;30134;47.866;-4.222;2023-02-04T08:37:53;103962.00;;;23.60
44429;BMP180;30134;47.866;-4.222;2023-02-04T08:40:19;103963.00;;;23.50
44429;BMP180;30134;47.866;-4.222;2023-02-04T08:42:45;103958.00;;;23.50
44429;BMP180;30134;47.866;-4.222;2023-02-04T08:45:11;103967.00;;;23.50
44429;BMP180;30134;47.866;-4.222;2023-02-04T08:47:37;103969.00;;;23.50
44429;BMP180;30134;47.866;-4.222;2023-02-04T08:50:03;103972.00;;;23.50
44429;BMP180;30134;47.866;-4.222;2023-02-04T08:52:29;103982.00;;;23.50
44429;BMP180;30134;47.866;-4.222;2023-02-04T08:54:55;103975.00;;;23.50
44429;BMP180;30134;47.866;-4.222;2023-02-04T08:57:21;103977.00;;;23.50
44429;BMP180;30134;47.866;-4.222;2023-02-04T08:59:46;103974.00;;;23.50
44429;BMP180;30134;47.866;-4.222;2023-02-04T09:02:12;103978.00;;;23.50
44429;BMP180;30134;47.866;-4.222;2023-02-04T09:04:38;103979.00;;;23.50
44429;BMP180;30134;47.866;-4.222;2023-02-04T09:07:04;103978.00;;;23.50
44429;BMP180;30134;47.866;-4.222;2023-02-04T09:09:30;103986.00;;;23.50
44429;BMP180;30134;47.866;-4.222;2023-02-04T09:11:56;103986.00;;;23.50
44429;BMP180;30134;47.866;-4.222;2023-02-04T09:14:22;103993.00;;;23.50
44429;BMP180;30134;47.866;-4.222;2023-02-04T09:16:48;103994.00;;;23.50
44429;BMP180;30134;47.866;-4.222;2023-02-04T09:19:13;103987.00;;;23.50
44429;BMP180;30134;47.866;-4.222;2023-02-04T09:21:41;103988.00;;;23.50
44429;BMP180;30134;47.866;-4.222;2023-02-04T09:24:07;103991.00;;;23.50
44429;BMP180;30134;47.866;-4.222;2023-02-04T09:26:33;103996.00;;;23.50
44429;BMP180;30134;47.866;-4.222;2023-02-04T09:28:58;103994.00;;;23.50
44429;BMP180;30134;47.866;-4.222;2023-02-04T09:31:24;103995.00;;;23.50
44429;BMP180;30134;47.866;-4.222;2023-02-04T09:33:50;103999.00;;;23.50
44429;BMP180;30134;47.866;-4.222;2023-02-04T09:36:16;103994.00;;;23.50
44429;BMP180;30134;47.866;-4.222;2023-02-04T09:38:42;104000.00;;;23.50
44429;BMP180;30134;47.866;-4.222;2023-02-04T09:41:09;104004.00;;;23.50
44429;BMP180;30134;47.866;-4.222;2023-02-04T09:43:43;104004.00;;;23.50
44429;BMP180;30134;47.866;-4.222;2023-02-04T09:46:18;104009.00;;;23.50
44429;BMP180;30134;47.866;-4.222;2023-02-04T09:48:45;104021.00;;;23.50
44429;BMP180;30134;47.866;-4.222;2023-02-04T09:51:11;104015.00;;;23.50
44429;BMP180;30134;47.866;-4.222;2023-02-04T09:53:39;104017.00;;;23.60
44429;BMP180;30134;47.866;-4.222;2023-02-04T09:56:05;104022.00;;;23.60
44429;BMP180;30134;47.866;-4.222;2023-02-04T09:58:32;104019.00;;;23.50
44429;BMP180;30134;47.866;-4.222;2023-02-04T10:01:05;104029.00;;;23.50
44429;BMP180;30134;47.866;-4.222;2023-02-04T10:03:31;104023.00;;;23.50
44429;BMP180;30134;47.866;-4.222;2023-02-04T10:05:57;104022.00;;;23.50
44429;BMP180;30134;47.866;-4.222;2023-02-04T10:08:30;104015.00;;;23.50
44429;BMP180;30134;47.866;-4.222;2023-02-04T10:10:57;104021.00;;;23.50
44429;BMP180;30134;47.866;-4.222;2023-02-04T10:13:31;104029.00;;;23.50
44429;BMP180;30134;47.866;-4.222;2023-02-04T10:15:58;104029.00;;;23.50
44429;BMP180;30134;47.866;-4.222;2023-02-04T10:18:28;104018.00;;;23.50
44429;BMP180;30134;47.866;-4.222;2023-02-04T10:20:56;104027.00;;;23.50
44429;BMP180;30134;47.866;-4.222;2023-02-04T10:23:25;104027.00;;;23.50
44429;BMP180;30134;47.866;-4.222;2023-02-04T10:25:51;104028.00;;;23.50
44429;BMP180;30134;47.866;-4.222;2023-02-04T10:28:17;104038.00;;;23.50
44429;BMP180;30134;47.866;-4.222;2023-02-04T10:30:43;104039.00;;;23.50
44429;BMP180;30134;47.866;-4.222;2023-02-04T10:33:14;104035.00;;;23.50
44429;BMP180;30134;47.866;-4.222;2023-02-04T10:35:49;104045.00;;;23.50
44429;BMP180;30134;47.866;-4.222;2023-02-04T10:38:15;104045.00;;;23.50
44429;BMP180;30134;47.866;-4.222;2023-02-04T10:40:44;104040.00;;;23.50
44429;BMP180;30134;47.866;-4.222;2023-02-04T10:43:14;104046.00;;;23.50
44429;BMP180;30134;47.866;-4.222;2023-02-04T10:45:53;104041.00;;;23.50
44429;BMP180;30134;47.866;-4.222;2023-02-04T10:48:22;104048.00;;;23.50
44429;BMP180;30134;47.866;-4.222;2023-02-04T10:50:48;104050.00;;;23.50
44429;BMP180;30134;47.866;-4.222;2023-02-04T10:53:16;104048.00;;;23.50
44429;BMP180;30134;47.866;-4.222;2023-02-04T10:56:01;104055.00;;;23.50
44429;BMP180;30134;47.866;-4.222;2023-02-04T10:58:29;104052.00;;;23.50
44429;BMP180;30134;47.866;-4.222;2023-02-04T11:01:02;104059.00;;;23.50
44429;BMP180;30134;47.866;-4.222;2023-02-04T11:03:42;104056.00;;;23.50
44429;BMP180;30134;47.866;-4.222;2023-02-04T11:06:19;104067.00;;;23.50
44429;BMP180;30134;47.866;-4.222;2023-02-04T11:08:45;104064.00;;;23.50
44429;BMP180;30134;47.866;-4.222;2023-02-04T11:11:20;104075.00;;;23.50
44429;BMP180;30134;47.866;-4.222;2023-02-04T11:16:45;104069.00;;;23.50
44429;BMP180;30134;47.866;-4.222;2023-02-04T11:19:12;104073.00;;;23.50
44429;BMP180;30134;47.866;-4.222;2023-02-04T11:26:38;104086.00;;;23.50
44429;BMP180;30134;47.866;-4.222;2023-02-04T11:34:08;104081.00;;;23.50
44429;BMP180;30134;47.866;-4.222;2023-02-04T11:36:49;104081.00;;;23.50
44429;BMP180;30134;47.866;-4.222;2023-02-04T11:39:15;104078.00;;;23.50
44429;BMP180;30134;47.866;-4.222;2023-02-04T11:41:45;104075.00;;;23.50
44429;BMP180;30134;47.866;-4.222;2023-02-04T11:44:14;104066.00;;;23.50
44429;BMP180;30134;47.866;-4.222;2023-02-04T11:46:41;104070.00;;;23.50
44429;BMP180;30134;47.866;-4.222;2023-02-04T11:49:17;104069.00;;;23.50
44429;BMP180;30134;47.866;-4.222;2023-02-04T11:51:43;104071.00;;;23.50
44429;BMP180;30134;47.866;-4.222;2023-02-04T11:54:12;104079.00;;;23.50
44429;BMP180;30134;47.866;-4.222;2023-02-04T11:56:38;104076.00;;;23.50
44429;BMP180;30134;47.866;-4.222;2023-02-04T11:59:04;104074.00;;;23.50
44429;BMP180;30134;47.866;-4.222;2023-02-04T12:01:32;104078.00;;;23.50
44429;BMP180;30134;47.866;-4.222;2023-02-04T12:03:59;104075.00;;;23.50
44429;BMP180;30134;47.866;-4.222;2023-02-04T12:06:30;104068.00;;;23.50
44429;BMP180;30134;47.866;-4.222;2023-02-04T12:09:08;104078.00;;;23.50
44429;BMP180;30134;47.866;-4.222;2023-02-04T12:12:21;104077.00;;;23.50
44429;BMP180;30134;47.866;-4.222;2023-02-04T12:14:37;104079.00;;;23.50
44429;BMP180;30134;47.866;-4.222;2023-02-04T12:17:17;104078.00;;;23.50
44429;BMP180;30134;47.866;-4.222;2023-02-04T12:19:43;104073.00;;;23.50
44429;BMP180;30134;47.866;-4.222;2023-02-04T12:22:09;104073.00;;;23.50
44429;BMP180;30134;47.866;-4.222;2023-02-04T12:24:35;104071.00;;;23.50
44429;BMP180;30134;47.866;-4.222;2023-02-04T12:27:01;104073.00;;;23.50
44429;BMP180;30134;47.866;-4.222;2023-02-04T12:29:27;104067.00;;;23.50
44429;BMP180;30134;47.866;-4.222;2023-02-04T12:31:53;104070.00;;;23.50
44429;BMP180;30134;47.866;-4.222;2023-02-04T12:34:18;104067.00;;;23.50
44429;BMP180;30134;47.866;-4.222;2023-02-04T12:36:45;104070.00;;;23.50
44429;BMP180;30134;47.866;-4.222;2023-02-04T12:39:11;104078.00;;;23.50
44429;BMP180;30134;47.866;-4.222;2023-02-04T12:41:37;104069.00;;;23.50
44429;BMP180;30134;47.866;-4.222;2023-02-04T12:44:03;104079.00;;;23.50
44429;BMP180;30134;47.866;-4.222;2023-02-04T12:46:29;104082.00;;;23.50
44429;BMP180;30134;47.866;-4.222;2023-02-04T12:48:55;104090.00;;;23.50
44429;BMP180;30134;47.866;-4.222;2023-02-04T12:51:21;104092.00;;;23.50
44429;BMP180;30134;47.866;-4.222;2023-02-04T12:53:47;104083.00;;;23.50
44429;BMP180;30134;47.866;-4.222;2023-02-04T12:56:14;104076.00;;;23.50
44429;BMP180;30134;47.866;-4.222;2023-02-04T12:58:40;104084.00;;;23.50
44429;BMP180;30134;47.866;-4.222;2023-02-04T13:01:06;104081.00;;;23.50
44429;BMP180;30134;47.866;-4.222;2023-02-04T13:03:32;104075.00;;;23.50
44429;BMP180;30134;47.866;-4.222;2023-02-04T13:05:58;104062.00;;;23.50
44429;BMP180;30134;47.866;-4.222;2023-02-04T13:08:24;104065.00;;;23.50
44429;BMP180;30134;47.866;-4.222;2023-02-04T13:10:50;104067.00;;;23.50
44429;BMP180;30134;47.866;-4.222;2023-02-04T13:13:17;104065.00;;;23.50
44429;BMP180;30134;47.866;-4.222;2023-02-04T13:15:44;104061.00;;;23.50
44429;BMP180;30134;47.866;-4.222;2023-02-04T13:18:10;104056.00;;;23.50
44429;BMP180;30134;47.866;-4.222;2023-02-04T13:20:36;104056.00;;;23.50
44429;BMP180;30134;47.866;-4.222;2023-02-04T13:23:02;104062.00;;;23.50
44429;BMP180;30134;47.866;-4.222;2023-02-04T13:25:28;104060.00;;;23.50
44429;BMP180;30134;47.866;-4.222;2023-02-04T13:27:54;104055.00;;;23.50
44429;BMP180;30134;47.866;-4.222;2023-02-04T13:30:20;104054.00;;;23.50
44429;BMP180;30134;47.866;-4.222;2023-02-04T13:32:46;104052.00;;;23.50
44429;BMP180;30134;47.866;-4.222;2023-02-04T13:35:12;104053.00;;;23.50
44429;BMP180;30134;47.866;-4.222;2023-02-04T13:37:38;104053.00;;;23.50
44429;BMP180;30134;47.866;-4.222;2023-02-04T13:40:05;104048.00;;;23.50
44429;BMP180;30134;47.866;-4.222;2023-02-04T13:42:32;104051.00;;;23.50
44429;BMP180;30134;47.866;-4.222;2023-02-04T13:44:58;104050.00;;;23.50
44429;BMP180;30134;47.866;-4.222;2023-02-04T13:47:24;104049.00;;;23.50
44429;BMP180;30134;47.866;-4.222;2023-02-04T13:49:50;104043.00;;;23.50
44429;BMP180;30134;47.866;-4.222;2023-02-04T13:52:16;104047.00;;;23.50
44429;BMP180;30134;47.866;-4.222;2023-02-04T13:54:43;104045.00;;;23.50
44429;BMP180;30134;47.866;-4.222;2023-02-04T13:57:09;104045.00;;;23.50